sensor_id;sensor_type;location;lat;lon;timestamp;pressure;altitude;pressure_sealevel;temperature;humidity
59337;BME280;45115;52.002;4.686;2023-01-30T00:00:49;101854.88;;;7.16;100.00
59337;BME280;45115;52.002;4.686;2023-01-30T00:03:18;101846.59;;;7.12;100.00
59337;BME280;45115;52.002;4.686;2023-01-30T00:05:44;101852.03;;;7.17;100.00
59337;BME280;45115;52.002;4.686;2023-01-30T00:08:12;101857.31;;;7.17;100.00
59337;BME280;45115;52.002;4.686;2023-01-30T00:10:38;101849.09;;;7.26;100.00
59337;BME280;45115;52.002;4.686;2023-01-30T00:13:05;101846.91;;;7.23;100.00
59337;BME280;45115;52.002;4.686;2023-01-30T00:15:32;101830.84;;;7.24;100.00
59337;BME280;45115;52.002;4.686;2023-01-30T00:17:59;101826.81;;;7.22;100.00
59337;BME280;45115;52.002;4.686;2023-01-30T00:20:28;101824.75;;;7.24;100.00
59337;BME280;45115;52.002;4.686;2023-01-30T00:22:55;101833.69;;;7.23;100.00
59337;BME280;45115;52.002;4.686;2023-01-30T00:25:22;101839.94;;;7.28;100.00
59337;BME280;45115;52.002;4.686;2023-01-30T00:27:49;101842.59;;;7.28;100.00
59337;BME280;45115;52.002;4.686;2023-01-30T00:30:16;101817.28;;;7.21;100.00
59337;BME280;45115;52.002;4.686;2023-01-30T00:32:43;101806.06;;;7.25;100.00
59337;BME280;45115;52.002;4.686;2023-01-30T00:35:10;101798.59;;;7.22;100.00
59337;BME280;45115;52.002;4.686;2023-01-30T00:37:38;101799.38;;;7.23;100.00
59337;BME280;45115;52.002;4.686;2023-01-30T00:40:05;101814.19;;;7.24;100.00
59337;BME280;45115;52.002;4.686;2023-01-30T00:42:32;101801.38;;;7.27;100.00
59337;BME280;45115;52.002;4.686;2023-01-30T00:45:16;101797.09;;;7.26;100.00
59337;BME280;45115;52.002;4.686;2023-01-30T00:48:00;101793.06;;;7.24;100.00
59337;BME280;45115;52.002;4.686;2023-01-30T00:50:27;101774.03;;;7.22;100.00
59337;BME280;45115;52.002;4.686;2023-01-30T00:53:09;101780.03;;;7.29;100.00
59337;BME280;45115;52.002;4.686;2023-01-30T00:55:37;101776.81;;;7.27;100.00
59337;BME280;45115;52.002;4.686;2023-01-30T00:58:04;101766.69;;;7.24;100.00
59337;BME280;45115;52.002;4.686;2023-01-30T01:00:32;101778.88;;;7.25;100.00
59337;BME280;45115;52.002;4.686;2023-01-30T01:02:59;101768.88;;;7.27;100.00
59337;BME280;45115;52.002;4.686;2023-01-30T01:05:27;101780.03;;;7.29;100.00
59337;BME280;45115;52.002;4.686;2023-01-30T01:07:54;101749.16;;;7.29;100.00
59337;BME280;45115;52.002;4.686;2023-01-30T01:10:23;101721.81;;;7.24;100.00
59337;BME280;45115;52.002;4.686;2023-01-30T01:12:51;101721.81;;;7.24;100.00
59337;BME280;45115;52.002;4.686;2023-01-30T01:15:18;101717.44;;;7.17;100.00
59337;BME280;45115;52.002;4.686;2023-01-30T01:17:47;101716.41;;;7.18;100.00
59337;BME280;45115;52.002;4.686;2023-01-30T01:20:16;101709.09;;;7.21;100.00
59337;BME280;45115;52.002;4.686;2023-01-30T01:22:43;101705.84;;;7.18;100.00
59337;BME280;45115;52.002;4.686;2023-01-30T01:25:10;101697.34;;;7.16;100.00
59337;BME280;45115;52.002;4.686;2023-01-30T01:27:39;101709.97;;;7.14;100.00
59337;BME280;45115;52.002;4.686;2023-01-30T01:30:08;101717.44;;;7.17;100.00
59337;BME280;45115;52.002;4.686;2023-01-30T01:32:35;101718.69;;;7.15;100.00
59337;BME280;45115;52.002;4.686;2023-01-30T01:35:02;101720.16;;;7.11;100.00
59337;BME280;45115;52.002;4.686;2023-01-30T01:37:29;101725.00;;;7.14;100.00
59337;BME280;45115;52.002;4.686;2023-01-30T01:39:56;101713.25;;;7.10;100.00
59337;BME280;45115;52.002;4.686;2023-01-30T01:42:50;101722.00;;;7.10;100.00
59337;BME280;45115;52.002;4.686;2023-01-30T01:45:19;101727.06;;;7.12;100.00
59337;BME280;45115;52.002;4.686;2023-01-30T01:47:56;101708.81;;;7.10;100.00
59337;BME280;45115;52.002;4.686;2023-01-30T01:50:29;101719.50;;;7.15;100.00
59337;BME280;45115;52.002;4.686;2023-01-30T01:52:58;101725.00;;;7.14;100.00
59337;BME280;45115;52.002;4.686;2023-01-30T01:55:27;101710.53;;;7.16;100.00
59337;BME280;45115;52.002;4.686;2023-01-30T01:58:00;101708.44;;;7.07;100.00
59337;BME280;45115;52.002;4.686;2023-01-30T02:00:28;101718.25;;;6.99;100.00
59337;BME280;45115;52.002;4.686;2023-01-30T02:03:00;101713.50;;;6.89;100.00
59337;BME280;45115;52.002;4.686;2023-01-30T02:05:30;101716.78;;;6.85;100.00
59337;BME280;45115;52.002;4.686;2023-01-30T02:07:59;101716.75;;;6.73;100.00
59337;BME280;45115;52.002;4.686;2023-01-30T02:10:33;101723.03;;;6.72;100.00
59337;BME280;45115;52.002;4.686;2023-01-30T02:13:03;101712.72;;;6.70;100.00
59337;BME280;45115;52.002;4.686;2023-01-30T02:15:33;101720.03;;;6.68;100.00
59337;BME280;45115;52.002;4.686;2023-01-30T02:18:08;101715.78;;;6.67;100.00
59337;BME280;45115;52.002;4.686;2023-01-30T02:20:48;101700.31;;;6.52;100.00
59337;BME280;45115;52.002;4.686;2023-01-30T02:23:34;101716.22;;;6.64;100.00
59337;BME280;45115;52.002;4.686;2023-01-30T02:32:28;101706.41;;;6.71;100.00
59337;BME280;45115;52.002;4.686;2023-01-30T02:35:07;101699.06;;;6.73;100.00
59337;BME280;45115;52.002;4.686;2023-01-30T02:37:48;101696.44;;;6.73;100.00
59337;BME280;45115;52.002;4.686;2023-01-30T02:40:30;101692.13;;;6.79;100.00
59337;BME280;45115;52.002;4.686;2023-01-30T02:43:05;101694.69;;;6.86;100.00
59337;BME280;45115;52.002;4.686;2023-01-30T02:45:38;101684.91;;;6.86;100.00
59337;BME280;45115;52.002;4.686;2023-01-30T02:48:14;101693.59;;;6.94;100.00
59337;BME280;45115;52.002;4.686;2023-01-30T02:50:46;101681.19;;;6.94;100.00
59337;BME280;45115;52.002;4.686;2023-01-30T02:53:15;101664.41;;;6.88;100.00
59337;BME280;45115;52.002;4.686;2023-01-30T02:55:43;101681.41;;;6.93;100.00
59337;BME280;45115;52.002;4.686;2023-01-30T02:58:11;101671.31;;;6.89;100.00
59337;BME280;45115;52.002;4.686;2023-01-30T03:00:52;101677.91;;;6.99;100.00
59337;BME280;45115;52.002;4.686;2023-01-30T03:03:52;101678.91;;;6.98;100.00
59337;BME280;45115;52.002;4.686;2023-01-30T03:06:48;101683.53;;;7.02;100.00
59337;BME280;45115;52.002;4.686;2023-01-30T03:09:22;101676.78;;;7.07;100.00
59337;BME280;45115;52.002;4.686;2023-01-30T03:11:59;101677.94;;;7.11;100.00
59337;BME280;45115;52.002;4.686;2023-01-30T03:15:00;101681.88;;;7.20;100.00
59337;BME280;45115;52.002;4.686;2023-01-30T03:17:50;101675.56;;;7.21;100.00
59337;BME280;45115;52.002;4.686;2023-01-30T03:20:19;101669.41;;;7.27;100.00
59337;BME280;45115;52.002;4.686;2023-01-30T03:22:46;101669.97;;;7.29;100.00
59337;BME280;45115;52.002;4.686;2023-01-30T03:25:16;101671.00;;;7.28;100.00
59337;BME280;45115;52.002;4.686;2023-01-30T03:27:44;101679.06;;;7.34;100.00
59337;BME280;45115;52.002;4.686;2023-01-30T03:30:12;101672.19;;;7.33;100.00
59337;BME280;45115;52.002;4.686;2023-01-30T03:32:40;101675.16;;;7.36;100.00
59337;BME280;45115;52.002;4.686;2023-01-30T03:35:07;101670.13;;;7.35;100.00
59337;BME280;45115;52.002;4.686;2023-01-30T03:37:36;101669.53;;;7.33;100.00
59337;BME280;45115;52.002;4.686;2023-01-30T03:40:04;101663.56;;;7.37;100.00
59337;BME280;45115;52.002;4.686;2023-01-30T03:42:31;101662.19;;;7.35;100.00
59337;BME280;45115;52.002;4.686;2023-01-30T03:44:58;101666.00;;;7.39;100.00
59337;BME280;45115;52.002;4.686;2023-01-30T03:47:25;101656.47;;;7.38;100.00
59337;BME280;45115;52.002;4.686;2023-01-30T03:49:53;101648.56;;;7.38;100.00
59337;BME280;45115;52.002;4.686;2023-01-30T03:52:20;101661.28;;;7.41;100.00
59337;BME280;45115;52.002;4.686;2023-01-30T03:54:48;101645.91;;;7.38;100.00
59337;BME280;45115;52.002;4.686;2023-01-30T03:57:15;101662.53;;;7.38;100.00
59337;BME280;45115;52.002;4.686;2023-01-30T03:59:42;101654.56;;;7.26;100.00
59337;BME280;45115;52.002;4.686;2023-01-30T04:02:12;101655.53;;;7.32;100.00
59337;BME280;45115;52.002;4.686;2023-01-30T04:04:45;101658.22;;;7.44;100.00
59337;BME280;45115;52.002;4.686;2023-01-30T04:07:12;101657.16;;;7.45;100.00
59337;BME280;45115;52.002;4.686;2023-01-30T04:09:40;101661.88;;;7.43;100.00
59337;BME280;45115;52.002;4.686;2023-01-30T04:12:08;101656.00;;;7.41;100.00
59337;BME280;45115;52.002;4.686;2023-01-30T04:14:42;101649.81;;;7.35;100.00
59337;BME280;45115;52.002;4.686;2023-01-30T04:17:23;101660.69;;;7.27;100.00
59337;BME280;45115;52.002;4.686;2023-01-30T04:20:10;101656.28;;;7.21;100.00
59337;BME280;45115;52.002;4.686;2023-01-30T04:22:41;101653.75;;;7.14;100.00
59337;BME280;45115;52.002;4.686;2023-01-30T04:25:08;101660.94;;;7.07;100.00
59337;BME280;45115;52.002;4.686;2023-01-30T04:27:37;101655.53;;;7.01;100.00
59337;BME280;45115;52.002;4.686;2023-01-30T04:30:21;101672.19;;;6.83;100.00
59337;BME280;45115;52.002;4.686;2023-01-30T04:32:52;101678.19;;;6.90;100.00
59337;BME280;45115;52.002;4.686;2023-01-30T04:35:19;101667.63;;;6.90;100.00
59337;BME280;45115;52.002;4.686;2023-01-30T04:37:46;101666.59;;;6.91;100.00
59337;BME280;45115;52.002;4.686;2023-01-30T04:40:17;101670.56;;;7.01;100.00
59337;BME280;45115;52.002;4.686;2023-01-30T04:42:45;101681.59;;;7.10;100.00
59337;BME280;45115;52.002;4.686;2023-01-30T04:45:42;101673.03;;;7.14;100.00
59337;BME280;45115;52.002;4.686;2023-01-30T04:48:09;101668.25;;;7.23;100.00
59337;BME280;45115;52.002;4.686;2023-01-30T04:50:37;101677.47;;;7.33;100.00
59337;BME280;45115;52.002;4.686;2023-01-30T04:53:05;101676.59;;;7.51;100.00
59337;BME280;45115;52.002;4.686;2023-01-30T04:55:33;101673.03;;;7.57;100.00
59337;BME280;45115;52.002;4.686;2023-01-30T04:58:04;101662.22;;;7.47;100.00
59337;BME280;45115;52.002;4.686;2023-01-30T05:00:31;101650.84;;;7.46;100.00
59337;BME280;45115;52.002;4.686;2023-01-30T05:03:00;101671.66;;;7.54;100.00
59337;BME280;45115;52.002;4.686;2023-01-30T05:05:27;101677.72;;;7.55;100.00
59337;BME280;45115;52.002;4.686;2023-01-30T05:07:54;101647.28;;;7.40;100.00
59337;BME280;45115;52.002;4.686;2023-01-30T05:10:21;101665.03;;;7.33;100.00
59337;BME280;45115;52.002;4.686;2023-01-30T05:12:48;101670.19;;;7.28;100.00
59337;BME280;45115;52.002;4.686;2023-01-30T05:15:16;101670.41;;;7.14;100.00
59337;BME280;45115;52.002;4.686;2023-01-30T05:17:43;101669.53;;;7.02;100.00
59337;BME280;45115;52.002;4.686;2023-01-30T05:20:11;101678.69;;;6.99;100.00
59337;BME280;45115;52.002;4.686;2023-01-30T05:22:38;101671.88;;;6.91;100.00
59337;BME280;45115;52.002;4.686;2023-01-30T05:25:05;101677.97;;;6.92;100.00
59337;BME280;45115;52.002;4.686;2023-01-30T05:27:32;101693.88;;;6.85;100.00
59337;BME280;45115;52.002;4.686;2023-01-30T05:29:59;101680.75;;;6.78;100.00
59337;BME280;45115;52.002;4.686;2023-01-30T05:32:27;101684.41;;;6.77;100.00
59337;BME280;45115;52.002;4.686;2023-01-30T05:34:55;101680.38;;;6.75;100.00
59337;BME280;45115;52.002;4.686;2023-01-30T05:37:22;101689.41;;;6.67;100.00
59337;BME280;45115;52.002;4.686;2023-01-30T05:39:50;101683.19;;;6.61;100.00
59337;BME280;45115;52.002;4.686;2023-01-30T05:42:20;101698.94;;;6.49;100.00
59337;BME280;45115;52.002;4.686;2023-01-30T05:44:48;101703.22;;;6.44;100.00
59337;BME280;45115;52.002;4.686;2023-01-30T05:47:15;101695.53;;;6.23;100.00
59337;BME280;45115;52.002;4.686;2023-01-30T05:49:43;101707.41;;;6.33;100.00
59337;BME280;45115;52.002;4.686;2023-01-30T05:52:09;101711.03;;;6.32;100.00
59337;BME280;45115;52.002;4.686;2023-01-30T05:54:36;101711.53;;;6.22;100.00
59337;BME280;45115;52.002;4.686;2023-01-30T05:57:03;101708.25;;;6.27;100.00
59337;BME280;45115;52.002;4.686;2023-01-30T05:59:30;101711.16;;;6.18;100.00
59337;BME280;45115;52.002;4.686;2023-01-30T06:01:57;101713.00;;;6.18;100.00
59337;BME280;45115;52.002;4.686;2023-01-30T06:04:23;101704.75;;;6.07;100.00
59337;BME280;45115;52.002;4.686;2023-01-30T06:06:51;101703.69;;;6.15;100.00
59337;BME280;45115;52.002;4.686;2023-01-30T06:09:18;101701.66;;;6.17;100.00
59337;BME280;45115;52.002;4.686;2023-01-30T06:11:45;101698.91;;;6.05;100.00
59337;BME280;45115;52.002;4.686;2023-01-30T06:14:12;101700.31;;;6.01;100.00
59337;BME280;45115;52.002;4.686;2023-01-30T06:16:39;101719.06;;;5.93;100.00
59337;BME280;45115;52.002;4.686;2023-01-30T06:19:06;101702.63;;;5.91;100.00
59337;BME280;45115;52.002;4.686;2023-01-30T06:21:33;101714.53;;;6.00;100.00
59337;BME280;45115;52.002;4.686;2023-01-30T06:24:01;101708.06;;;5.96;100.00
59337;BME280;45115;52.002;4.686;2023-01-30T06:26:28;101701.41;;;5.93;100.00
59337;BME280;45115;52.002;4.686;2023-01-30T06:28:55;101702.63;;;5.91;100.00
59337;BME280;45115;52.002;4.686;2023-01-30T06:31:22;101702.00;;;5.95;100.00
59337;BME280;45115;52.002;4.686;2023-01-30T06:33:48;101707.28;;;5.95;100.00
59337;BME280;45115;52.002;4.686;2023-01-30T06:36:15;101695.94;;;5.95;100.00
59337;BME280;45115;52.002;4.686;2023-01-30T06:38:42;101697.91;;;5.99;100.00
59337;BME280;45115;52.002;4.686;2023-01-30T06:41:10;101687.72;;;6.10;100.00
59337;BME280;45115;52.002;4.686;2023-01-30T06:43:37;101668.94;;;5.99;100.00
59337;BME280;45115;52.002;4.686;2023-01-30T06:46:04;101684.38;;;5.96;100.00
59337;BME280;45115;52.002;4.686;2023-01-30T06:48:31;101690.66;;;5.95;100.00
59337;BME280;45115;52.002;4.686;2023-01-30T06:51:01;101698.66;;;5.81;100.00
59337;BME280;45115;52.002;4.686;2023-01-30T06:53:28;101701.28;;;5.81;100.00
59337;BME280;45115;52.002;4.686;2023-01-30T06:55:56;101698.06;;;5.79;100.00
59337;BME280;45115;52.002;4.686;2023-01-30T06:58:24;101698.91;;;5.73;100.00
59337;BME280;45115;52.002;4.686;2023-01-30T07:00:51;101721.34;;;5.82;100.00
59337;BME280;45115;52.002;4.686;2023-01-30T07:03:19;101718.66;;;5.89;100.00
59337;BME280;45115;52.002;4.686;2023-01-30T07:05:46;101705.88;;;5.93;100.00
59337;BME280;45115;52.002;4.686;2023-01-30T07:08:14;101717.41;;;5.92;100.00
59337;BME280;45115;52.002;4.686;2023-01-30T07:10:42;101728.97;;;5.91;100.00
59337;BME280;45115;52.002;4.686;2023-01-30T07:13:09;101725.75;;;5.89;100.00
59337;BME280;45115;52.002;4.686;2023-01-30T07:15:37;101743.16;;;5.90;100.00
59337;BME280;45115;52.002;4.686;2023-01-30T07:18:04;101735.59;;;6.00;100.00
59337;BME280;45115;52.002;4.686;2023-01-30T07:20:31;101737.41;;;5.99;100.00
59337;BME280;45115;52.002;4.686;2023-01-30T07:22:58;101734.19;;;5.97;100.00
59337;BME280;45115;52.002;4.686;2023-01-30T07:25:26;101745.31;;;5.99;100.00
59337;BME280;45115;52.002;4.686;2023-01-30T07:27:54;101739.47;;;6.04;100.00
59337;BME280;45115;52.002;4.686;2023-01-30T07:30:22;101751.25;;;5.95;100.00
59337;BME280;45115;52.002;4.686;2023-01-30T07:32:50;101755.31;;;5.91;100.00
59337;BME280;45115;52.002;4.686;2023-01-30T07:35:18;101746.97;;;6.01;100.00
59337;BME280;45115;52.002;4.686;2023-01-30T07:37:45;101751.41;;;6.00;100.00
59337;BME280;45115;52.002;4.686;2023-01-30T07:40:13;101743.81;;;5.85;100.00
59337;BME280;45115;52.002;4.686;2023-01-30T07:42:40;101755.69;;;5.94;100.00
59337;BME280;45115;52.002;4.686;2023-01-30T07:45:07;101756.06;;;6.05;100.00
59337;BME280;45115;52.002;4.686;2023-01-30T07:47:34;101736.25;;;5.95;100.00
59337;BME280;45115;52.002;4.686;2023-01-30T07:50:03;101744.09;;;6.02;100.00
59337;BME280;45115;52.002;4.686;2023-01-30T07:52:30;101750.41;;;5.94;100.00
59337;BME280;45115;52.002;4.686;2023-01-30T07:54:57;101759.13;;;5.95;100.00
59337;BME280;45115;52.002;4.686;2023-01-30T07:57:23;101758.94;;;5.96;100.00
59337;BME280;45115;52.002;4.686;2023-01-30T07:59:50;101773.06;;;6.02;100.00
59337;BME280;45115;52.002;4.686;2023-01-30T08:02:17;101755.66;;;6.01;100.00
59337;BME280;45115;52.002;4.686;2023-01-30T08:04:43;101769.22;;;6.05;100.00
59337;BME280;45115;52.002;4.686;2023-01-30T08:07:11;101783.84;;;6.01;100.00
59337;BME280;45115;52.002;4.686;2023-01-30T08:09:38;101792.91;;;6.11;100.00
59337;BME280;45115;52.002;4.686;2023-01-30T08:12:05;101787.22;;;6.15;100.00
59337;BME280;45115;52.002;4.686;2023-01-30T08:14:31;101794.84;;;6.23;100.00
59337;BME280;45115;52.002;4.686;2023-01-30T08:16:58;101798.75;;;6.14;100.00
59337;BME280;45115;52.002;4.686;2023-01-30T08:19:25;101786.34;;;6.21;100.00
59337;BME280;45115;52.002;4.686;2023-01-30T08:21:51;101767.69;;;6.22;100.00
59337;BME280;45115;52.002;4.686;2023-01-30T08:24:20;101785.28;;;6.29;100.00
59337;BME280;45115;52.002;4.686;2023-01-30T08:26:47;101789.34;;;6.24;100.00
59337;BME280;45115;52.002;4.686;2023-01-30T08:29:13;101801.28;;;6.27;100.00
59337;BME280;45115;52.002;4.686;2023-01-30T08:31:40;101793.38;;;6.27;100.00
59337;BME280;45115;52.002;4.686;2023-01-30T08:34:10;101802.91;;;6.28;100.00
59337;BME280;45115;52.002;4.686;2023-01-30T08:36:40;101795.97;;;6.34;100.00
59337;BME280;45115;52.002;4.686;2023-01-30T08:39:06;101799.00;;;6.37;100.00
59337;BME280;45115;52.002;4.686;2023-01-30T08:41:35;101797.38;;;6.36;100.00
59337;BME280;45115;52.002;4.686;2023-01-30T08:44:01;101807.94;;;6.36;100.00
59337;BME280;45115;52.002;4.686;2023-01-30T08:46:28;101818.78;;;6.47;100.00
59337;BME280;45115;52.002;4.686;2023-01-30T08:48:55;101841.66;;;6.53;100.00
59337;BME280;45115;52.002;4.686;2023-01-30T08:51:22;101840.03;;;6.52;100.00
59337;BME280;45115;52.002;4.686;2023-01-30T08:53:48;101842.13;;;6.69;100.00
59337;BME280;45115;52.002;4.686;2023-01-30T08:56:15;101830.47;;;6.83;100.00
59337;BME280;45115;52.002;4.686;2023-01-30T08:58:43;101851.88;;;6.94;100.00
59337;BME280;45115;52.002;4.686;2023-01-30T09:01:11;101847.31;;;7.01;100.00
59337;BME280;45115;52.002;4.686;2023-01-30T09:03:38;101850.31;;;7.04;100.00
59337;BME280;45115;52.002;4.686;2023-01-30T09:06:05;101836.56;;;7.02;100.00
59337;BME280;45115;52.002;4.686;2023-01-30T09:08:31;101853.84;;;6.98;100.00
59337;BME280;45115;52.002;4.686;2023-01-30T09:10:59;101857.16;;;6.94;100.00
59337;BME280;45115;52.002;4.686;2023-01-30T09:13:26;101870.41;;;7.05;100.00
59337;BME280;45115;52.002;4.686;2023-01-30T09:15:55;101860.53;;;7.01;100.00
59337;BME280;45115;52.002;4.686;2023-01-30T09:18:22;101866.63;;;7.01;100.00
59337;BME280;45115;52.002;4.686;2023-01-30T09:20:49;101857.00;;;7.07;100.00
59337;BME280;45115;52.002;4.686;2023-01-30T09:23:16;101862.56;;;6.99;100.00
59337;BME280;45115;52.002;4.686;2023-01-30T09:25:44;101859.19;;;6.91;100.00
59337;BME280;45115;52.002;4.686;2023-01-30T09:28:10;101878.72;;;7.09;100.00
59337;BME280;45115;52.002;4.686;2023-01-30T09:30:37;101875.25;;;7.09;100.00
59337;BME280;45115;52.002;4.686;2023-01-30T09:33:05;101869.97;;;7.09;100.00
59337;BME280;45115;52.002;4.686;2023-01-30T09:35:32;101867.91;;;7.11;100.00
59337;BME280;45115;52.002;4.686;2023-01-30T09:37:59;101874.53;;;7.20;100.00
59337;BME280;45115;52.002;4.686;2023-01-30T09:40:29;101878.72;;;7.28;100.00
59337;BME280;45115;52.002;4.686;2023-01-30T09:43:21;101886.84;;;7.26;100.00
59337;BME280;45115;52.002;4.686;2023-01-30T09:45:59;101880.47;;;7.15;100.00
59337;BME280;45115;52.002;4.686;2023-01-30T09:48:35;101897.50;;;7.20;100.00
59337;BME280;45115;52.002;4.686;2023-01-30T09:51:41;101889.34;;;7.21;100.00
59337;BME280;45115;52.002;4.686;2023-01-30T09:54:17;101860.31;;;7.21;100.00
59337;BME280;45115;52.002;4.686;2023-01-30T09:56:51;101888.97;;;7.17;100.00
59337;BME280;45115;52.002;4.686;2023-01-30T09:59:24;101900.28;;;7.25;100.00
59337;BME280;45115;52.002;4.686;2023-01-30T10:01:59;101909.25;;;7.42;100.00
59337;BME280;45115;52.002;4.686;2023-01-30T10:04:33;101912.75;;;7.36;100.00
59337;BME280;45115;52.002;4.686;2023-01-30T10:07:06;101931.47;;;7.35;100.00
59337;BME280;45115;52.002;4.686;2023-01-30T10:09:44;101933.69;;;7.38;100.00
59337;BME280;45115;52.002;4.686;2023-01-30T10:12:24;101948.13;;;7.35;100.00
59337;BME280;45115;52.002;4.686;2023-01-30T10:15:16;101919.06;;;7.35;100.00
59337;BME280;45115;52.002;4.686;2023-01-30T10:17:59;101955.78;;;7.37;100.00
59337;BME280;45115;52.002;4.686;2023-01-30T10:20:37;101934.69;;;7.37;100.00
59337;BME280;45115;52.002;4.686;2023-01-30T10:23:21;101954.28;;;7.48;100.00
59337;BME280;45115;52.002;4.686;2023-01-30T10:25:54;101972.25;;;7.39;100.00
59337;BME280;45115;52.002;4.686;2023-01-30T10:28:25;101967.38;;;7.36;100.00
59337;BME280;45115;52.002;4.686;2023-01-30T10:31:00;101970.13;;;7.48;100.00
59337;BME280;45115;52.002;4.686;2023-01-30T10:33:31;101947.06;;;7.92;100.00
59337;BME280;45115;52.002;4.686;2023-01-30T10:36:06;101964.72;;;7.98;100.00
59337;BME280;45115;52.002;4.686;2023-01-30T10:38:38;101965.88;;;7.84;100.00
59337;BME280;45115;52.002;4.686;2023-01-30T10:41:13;101960.47;;;7.79;100.00
59337;BME280;45115;52.002;4.686;2023-01-30T10:43:46;101968.03;;;7.75;100.00
59337;BME280;45115;52.002;4.686;2023-01-30T10:46:27;101967.06;;;7.69;100.00
59337;BME280;45115;52.002;4.686;2023-01-30T10:49:01;101966.25;;;7.69;100.00
59337;BME280;45115;52.002;4.686;2023-01-30T10:51:40;101971.16;;;7.65;100.00
59337;BME280;45115;52.002;4.686;2023-01-30T10:54:14;101968.38;;;7.60;100.00
59337;BME280;45115;52.002;4.686;2023-01-30T10:56:47;101973.16;;;7.70;100.00
59337;BME280;45115;52.002;4.686;2023-01-30T10:59:22;101971.16;;;7.65;100.00
59337;BME280;45115;52.002;4.686;2023-01-30T11:01:57;101968.88;;;7.69;100.00
59337;BME280;45115;52.002;4.686;2023-01-30T11:04:29;101964.47;;;7.63;100.00
59337;BME280;45115;52.002;4.686;2023-01-30T11:06:59;101981.88;;;7.70;100.00
59337;BME280;45115;52.002;4.686;2023-01-30T11:09:37;101974.31;;;7.74;100.00
59337;BME280;45115;52.002;4.686;2023-01-30T11:12:05;101963.75;;;7.74;100.00
59337;BME280;45115;52.002;4.686;2023-01-30T11:14:50;101978.44;;;7.70;100.00
59337;BME280;45115;52.002;4.686;2023-01-30T11:17:18;101961.41;;;7.66;100.00
59337;BME280;45115;52.002;4.686;2023-01-30T11:19:53;101974.56;;;7.73;100.00
59337;BME280;45115;52.002;4.686;2023-01-30T11:22:23;101974.97;;;7.69;100.00
59337;BME280;45115;52.002;4.686;2023-01-30T11:24:59;101968.88;;;7.69;100.00
59337;BME280;45115;52.002;4.686;2023-01-30T11:27:29;101968.59;;;7.77;100.00
59337;BME280;45115;52.002;4.686;2023-01-30T11:30:03;101971.69;;;7.55;100.00
59337;BME280;45115;52.002;4.686;2023-01-30T11:32:31;101980.38;;;7.37;100.00
59337;BME280;45115;52.002;4.686;2023-01-30T11:35:06;101981.25;;;7.50;100.00
59337;BME280;45115;52.002;4.686;2023-01-30T11:37:44;101980.84;;;7.53;100.00
59337;BME280;45115;52.002;4.686;2023-01-30T11:40:22;101971.38;;;7.82;100.00
59337;BME280;45115;52.002;4.686;2023-01-30T11:42:51;101979.78;;;8.29;100.00
59337;BME280;45115;52.002;4.686;2023-01-30T11:45:18;101988.94;;;8.14;100.00
59337;BME280;45115;52.002;4.686;2023-01-30T11:47:53;101981.41;;;8.30;100.00
59337;BME280;45115;52.002;4.686;2023-01-30T11:50:22;101970.44;;;8.14;100.00
59337;BME280;45115;52.002;4.686;2023-01-30T11:52:54;101976.06;;;8.18;100.00
59337;BME280;45115;52.002;4.686;2023-01-30T11:55:21;101982.91;;;8.37;100.00
59337;BME280;45115;52.002;4.686;2023-01-30T11:57:49;101974.22;;;8.18;100.00
59337;BME280;45115;52.002;4.686;2023-01-30T12:00:20;101960.28;;;8.11;100.00
59337;BME280;45115;52.002;4.686;2023-01-30T12:02:49;101965.78;;;8.28;100.00
59337;BME280;45115;52.002;4.686;2023-01-30T12:05:22;101973.22;;;8.31;100.00
59337;BME280;45115;52.002;4.686;2023-01-30T12:07:50;101983.03;;;8.31;100.00
59337;BME280;45115;52.002;4.686;2023-01-30T12:10:28;101973.50;;;8.11;100.00
59337;BME280;45115;52.002;4.686;2023-01-30T12:12:57;101979.88;;;8.22;100.00
59337;BME280;45115;52.002;4.686;2023-01-30T12:15:27;101977.13;;;8.29;100.00
59337;BME280;45115;52.002;4.686;2023-01-30T12:17:59;101985.03;;;8.17;100.00
59337;BME280;45115;52.002;4.686;2023-01-30T12:20:36;101985.91;;;8.10;100.00
59337;BME280;45115;52.002;4.686;2023-01-30T12:23:11;101983.91;;;8.24;100.00
59337;BME280;45115;52.002;4.686;2023-01-30T12:25:47;101992.16;;;8.66;100.00
59337;BME280;45115;52.002;4.686;2023-01-30T12:28:22;101984.59;;;8.81;100.00
59337;BME280;45115;52.002;4.686;2023-01-30T12:30:53;101990.19;;;8.42;100.00
59337;BME280;45115;52.002;4.686;2023-01-30T12:33:26;101991.66;;;8.38;100.00
59337;BME280;45115;52.002;4.686;2023-01-30T12:36:05;101993.19;;;8.46;100.00
59337;BME280;45115;52.002;4.686;2023-01-30T12:38:55;101996.25;;;8.31;100.00
59337;BME280;45115;52.002;4.686;2023-01-30T12:41:34;101991.13;;;8.48;100.00
59337;BME280;45115;52.002;4.686;2023-01-30T12:44:22;101999.22;;;8.53;100.00
59337;BME280;45115;52.002;4.686;2023-01-30T12:47:08;101996.34;;;8.55;100.00
59337;BME280;45115;52.002;4.686;2023-01-30T12:50:00;102003.09;;;8.50;100.00
59337;BME280;45115;52.002;4.686;2023-01-30T12:52:43;101985.47;;;8.14;100.00
59337;BME280;45115;52.002;4.686;2023-01-30T12:55:21;101992.56;;;8.13;100.00
59337;BME280;45115;52.002;4.686;2023-01-30T12:57:54;102007.78;;;8.18;100.00
59337;BME280;45115;52.002;4.686;2023-01-30T13:00:34;102004.78;;;8.14;100.00
59337;BME280;45115;52.002;4.686;2023-01-30T13:03:17;102009.25;;;8.14;100.00
59337;BME280;45115;52.002;4.686;2023-01-30T13:05:51;102024.44;;;8.18;100.00
59337;BME280;45115;52.002;4.686;2023-01-30T13:08:33;102009.78;;;8.04;100.00
59337;BME280;45115;52.002;4.686;2023-01-30T13:11:10;102025.19;;;8.07;100.00
59337;BME280;45115;52.002;4.686;2023-01-30T13:13:45;102027.03;;;8.06;100.00
59337;BME280;45115;52.002;4.686;2023-01-30T13:16:24;102035.41;;;8.22;100.00